sensor_id;sensor_type;location;lat;lon;timestamp;temperature;humidity
8820;DHT22;4446;50.876;4.736;2022-08-30T00:02:12;16.70;99.90
8820;DHT22;4446;50.876;4.736;2022-08-30T00:04:39;16.60;99.90
8820;DHT22;4446;50.876;4.736;2022-08-30T00:07:07;16.60;99.90
8820;DHT22;4446;50.876;4.736;2022-08-30T00:09:34;16.50;99.90
8820;DHT22;4446;50.876;4.736;2022-08-30T00:12:02;16.40;99.90
8820;DHT22;4446;50.876;4.736;2022-08-30T00:14:29;16.30;99.90
8820;DHT22;4446;50.876;4.736;2022-08-30T00:16:56;16.30;99.90
8820;DHT22;4446;50.876;4.736;2022-08-30T00:19:23;16.30;99.90
8820;DHT22;4446;50.876;4.736;2022-08-30T00:21:50;16.20;99.90
8820;DHT22;4446;50.876;4.736;2022-08-30T00:24:19;16.20;99.90
8820;DHT22;4446;50.876;4.736;2022-08-30T00:26:47;16.20;99.90
8820;DHT22;4446;50.876;4.736;2022-08-30T00:29:14;16.20;99.90
8820;DHT22;4446;50.876;4.736;2022-08-30T00:31:41;16.30;99.90
8820;DHT22;4446;50.876;4.736;2022-08-30T00:34:08;16.40;99.90
8820;DHT22;4446;50.876;4.736;2022-08-30T00:36:35;16.40;99.90
8820;DHT22;4446;50.876;4.736;2022-08-30T00:39:02;16.50;99.90
8820;DHT22;4446;50.876;4.736;2022-08-30T00:41:31;16.60;99.90
8820;DHT22;4446;50.876;4.736;2022-08-30T00:43:58;16.60;99.90
8820;DHT22;4446;50.876;4.736;2022-08-30T00:46:25;16.70;99.90
8820;DHT22;4446;50.876;4.736;2022-08-30T00:48:52;16.80;99.90
8820;DHT22;4446;50.876;4.736;2022-08-30T00:51:20;16.90;99.90
8820;DHT22;4446;50.876;4.736;2022-08-30T00:53:53;16.90;99.90
8820;DHT22;4446;50.876;4.736;2022-08-30T00:56:21;16.90;99.90
8820;DHT22;4446;50.876;4.736;2022-08-30T00:58:53;16.80;99.90
8820;DHT22;4446;50.876;4.736;2022-08-30T01:01:24;16.80;99.90
8820;DHT22;4446;50.876;4.736;2022-08-30T01:03:51;16.70;99.90
8820;DHT22;4446;50.876;4.736;2022-08-30T01:06:19;16.70;99.90
8820;DHT22;4446;50.876;4.736;2022-08-30T01:08:46;16.70;99.90
8820;DHT22;4446;50.876;4.736;2022-08-30T01:11:16;16.70;99.90
8820;DHT22;4446;50.876;4.736;2022-08-30T01:13:44;16.60;99.90
8820;DHT22;4446;50.876;4.736;2022-08-30T01:16:14;16.60;99.90
8820;DHT22;4446;50.876;4.736;2022-08-30T01:18:41;16.60;99.90
8820;DHT22;4446;50.876;4.736;2022-08-30T01:21:14;16.70;99.90
8820;DHT22;4446;50.876;4.736;2022-08-30T01:23:46;16.70;99.90
8820;DHT22;4446;50.876;4.736;2022-08-30T01:26:15;16.70;99.90
8820;DHT22;4446;50.876;4.736;2022-08-30T01:28:44;16.70;99.90
8820;DHT22;4446;50.876;4.736;2022-08-30T01:31:12;16.60;99.90
8820;DHT22;4446;50.876;4.736;2022-08-30T01:33:40;16.60;99.90
8820;DHT22;4446;50.876;4.736;2022-08-30T01:36:10;16.60;99.90
8820;DHT22;4446;50.876;4.736;2022-08-30T01:38:42;16.50;99.90
8820;DHT22;4446;50.876;4.736;2022-08-30T01:41:17;16.40;99.90
8820;DHT22;4446;50.876;4.736;2022-08-30T01:43:46;16.40;99.90
8820;DHT22;4446;50.876;4.736;2022-08-30T01:46:14;16.30;99.90
8820;DHT22;4446;50.876;4.736;2022-08-30T01:48:43;16.30;99.90
8820;DHT22;4446;50.876;4.736;2022-08-30T01:51:11;16.30;99.90
8820;DHT22;4446;50.876;4.736;2022-08-30T01:53:39;16.20;99.90
8820;DHT22;4446;50.876;4.736;2022-08-30T01:56:07;16.20;99.90
8820;DHT22;4446;50.876;4.736;2022-08-30T01:58:37;16.20;99.90
8820;DHT22;4446;50.876;4.736;2022-08-30T02:01:07;16.20;99.90
8820;DHT22;4446;50.876;4.736;2022-08-30T02:03:34;16.20;99.90
8820;DHT22;4446;50.876;4.736;2022-08-30T02:06:02;16.10;99.90
8820;DHT22;4446;50.876;4.736;2022-08-30T02:08:30;16.10;99.90
8820;DHT22;4446;50.876;4.736;2022-08-30T02:10:57;16.00;99.90
8820;DHT22;4446;50.876;4.736;2022-08-30T02:13:24;15.90;99.90
8820;DHT22;4446;50.876;4.736;2022-08-30T02:15:53;15.90;99.90
8820;DHT22;4446;50.876;4.736;2022-08-30T02:18:20;15.80;99.90
8820;DHT22;4446;50.876;4.736;2022-08-30T02:20:47;15.80;99.90
8820;DHT22;4446;50.876;4.736;2022-08-30T02:23:15;15.70;99.90
8820;DHT22;4446;50.876;4.736;2022-08-30T02:25:42;15.70;99.90
8820;DHT22;4446;50.876;4.736;2022-08-30T02:28:10;15.50;99.90
8820;DHT22;4446;50.876;4.736;2022-08-30T02:30:38;15.40;99.90
8820;DHT22;4446;50.876;4.736;2022-08-30T02:33:07;15.40;99.90
8820;DHT22;4446;50.876;4.736;2022-08-30T02:35:34;15.40;99.90
8820;DHT22;4446;50.876;4.736;2022-08-30T02:38:01;15.40;99.90
8820;DHT22;4446;50.876;4.736;2022-08-30T02:40:28;15.30;99.90
8820;DHT22;4446;50.876;4.736;2022-08-30T02:42:55;15.20;99.90
8820;DHT22;4446;50.876;4.736;2022-08-30T02:45:23;15.20;99.90
8820;DHT22;4446;50.876;4.736;2022-08-30T02:47:50;15.10;99.90
8820;DHT22;4446;50.876;4.736;2022-08-30T02:50:19;15.10;99.90
8820;DHT22;4446;50.876;4.736;2022-08-30T02:52:46;15.10;99.90
8820;DHT22;4446;50.876;4.736;2022-08-30T02:55:14;15.10;99.90
8820;DHT22;4446;50.876;4.736;2022-08-30T02:57:41;15.00;99.90
8820;DHT22;4446;50.876;4.736;2022-08-30T03:00:11;15.00;99.90
8820;DHT22;4446;50.876;4.736;2022-08-30T03:02:39;15.00;99.90
8820;DHT22;4446;50.876;4.736;2022-08-30T03:05:06;14.90;99.90
8820;DHT22;4446;50.876;4.736;2022-08-30T03:07:35;14.90;99.90
8820;DHT22;4446;50.876;4.736;2022-08-30T03:10:02;14.90;99.90
8820;DHT22;4446;50.876;4.736;2022-08-30T03:12:29;14.90;99.90
8820;DHT22;4446;50.876;4.736;2022-08-30T03:14:57;14.90;99.90
8820;DHT22;4446;50.876;4.736;2022-08-30T03:17:24;14.90;99.90
8820;DHT22;4446;50.876;4.736;2022-08-30T03:19:51;14.80;99.90
8820;DHT22;4446;50.876;4.736;2022-08-30T03:22:18;14.90;99.90
8820;DHT22;4446;50.876;4.736;2022-08-30T03:24:47;14.90;99.90
8820;DHT22;4446;50.876;4.736;2022-08-30T03:27:14;14.90;99.90
8820;DHT22;4446;50.876;4.736;2022-08-30T03:29:41;14.80;99.90
8820;DHT22;4446;50.876;4.736;2022-08-30T03:32:08;14.90;99.90
8820;DHT22;4446;50.876;4.736;2022-08-30T03:34:35;14.90;99.90
8820;DHT22;4446;50.876;4.736;2022-08-30T03:37:02;14.90;99.90
8820;DHT22;4446;50.876;4.736;2022-08-30T03:39:29;15.00;99.90
8820;DHT22;4446;50.876;4.736;2022-08-30T03:41:57;15.10;99.90
8820;DHT22;4446;50.876;4.736;2022-08-30T03:44:24;15.20;99.90
8820;DHT22;4446;50.876;4.736;2022-08-30T03:46:52;15.20;99.90
8820;DHT22;4446;50.876;4.736;2022-08-30T03:49:19;15.30;99.90
8820;DHT22;4446;50.876;4.736;2022-08-30T03:51:46;15.30;99.90
8820;DHT22;4446;50.876;4.736;2022-08-30T03:54:13;15.40;99.90
8820;DHT22;4446;50.876;4.736;2022-08-30T03:56:40;15.40;99.90
8820;DHT22;4446;50.876;4.736;2022-08-30T03:59:09;15.40;99.90
8820;DHT22;4446;50.876;4.736;2022-08-30T04:01:36;15.40;99.90
8820;DHT22;4446;50.876;4.736;2022-08-30T04:04:03;15.40;99.90
8820;DHT22;4446;50.876;4.736;2022-08-30T04:06:30;15.50;99.90
8820;DHT22;4446;50.876;4.736;2022-08-30T04:08:57;15.50;99.90
8820;DHT22;4446;50.876;4.736;2022-08-30T04:11:25;15.50;99.90
8820;DHT22;4446;50.876;4.736;2022-08-30T04:13:52;15.50;99.90
8820;DHT22;4446;50.876;4.736;2022-08-30T04:16:22;15.40;99.90
8820;DHT22;4446;50.876;4.736;2022-08-30T04:18:49;15.40;99.90
8820;DHT22;4446;50.876;4.736;2022-08-30T04:21:17;15.30;99.90
8820;DHT22;4446;50.876;4.736;2022-08-30T04:23:44;15.30;99.90
8820;DHT22;4446;50.876;4.736;2022-08-30T04:26:11;15.20;99.90
8820;DHT22;4446;50.876;4.736;2022-08-30T04:28:38;15.20;99.90
8820;DHT22;4446;50.876;4.736;2022-08-30T04:31:07;15.10;99.90
8820;DHT22;4446;50.876;4.736;2022-08-30T04:33:36;15.10;99.90
8820;DHT22;4446;50.876;4.736;2022-08-30T04:36:04;15.10;99.90
8820;DHT22;4446;50.876;4.736;2022-08-30T04:38:32;15.00;99.90
8820;DHT22;4446;50.876;4.736;2022-08-30T04:41:00;15.00;99.90
8820;DHT22;4446;50.876;4.736;2022-08-30T04:43:27;15.00;99.90
8820;DHT22;4446;50.876;4.736;2022-08-30T04:45:55;14.90;99.90
8820;DHT22;4446;50.876;4.736;2022-08-30T04:48:22;14.90;99.90
8820;DHT22;4446;50.876;4.736;2022-08-30T04:50:50;14.90;99.90
8820;DHT22;4446;50.876;4.736;2022-08-30T04:53:17;14.90;99.90
8820;DHT22;4446;50.876;4.736;2022-08-30T04:55:44;14.90;99.90
8820;DHT22;4446;50.876;4.736;2022-08-30T04:58:12;14.90;99.90
8820;DHT22;4446;50.876;4.736;2022-08-30T05:00:42;14.90;99.90
8820;DHT22;4446;50.876;4.736;2022-08-30T05:03:09;14.90;99.90
8820;DHT22;4446;50.876;4.736;2022-08-30T05:05:37;14.90;99.90
8820;DHT22;4446;50.876;4.736;2022-08-30T05:08:10;14.90;99.90
8820;DHT22;4446;50.876;4.736;2022-08-30T05:10:39;14.90;99.90
8820;DHT22;4446;50.876;4.736;2022-08-30T05:13:06;14.80;99.90
8820;DHT22;4446;50.876;4.736;2022-08-30T05:15:33;14.80;99.90
8820;DHT22;4446;50.876;4.736;2022-08-30T05:18:00;14.80;99.90
8820;DHT22;4446;50.876;4.736;2022-08-30T05:20:27;14.80;99.90
8820;DHT22;4446;50.876;4.736;2022-08-30T05:22:55;14.80;99.90
8820;DHT22;4446;50.876;4.736;2022-08-30T05:25:25;14.80;99.90
8820;DHT22;4446;50.876;4.736;2022-08-30T05:27:52;14.90;99.90
8820;DHT22;4446;50.876;4.736;2022-08-30T05:30:21;15.00;99.90
8820;DHT22;4446;50.876;4.736;2022-08-30T05:32:48;15.00;99.90
8820;DHT22;4446;50.876;4.736;2022-08-30T05:35:17;15.00;99.90
8820;DHT22;4446;50.876;4.736;2022-08-30T05:37:45;15.10;99.90
8820;DHT22;4446;50.876;4.736;2022-08-30T05:40:12;15.10;99.90
8820;DHT22;4446;50.876;4.736;2022-08-30T05:42:43;15.20;99.90
8820;DHT22;4446;50.876;4.736;2022-08-30T05:45:12;15.20;99.90
8820;DHT22;4446;50.876;4.736;2022-08-30T05:47:39;15.30;99.90
8820;DHT22;4446;50.876;4.736;2022-08-30T05:50:07;15.30;99.90
8820;DHT22;4446;50.876;4.736;2022-08-30T05:52:34;15.40;99.90
8820;DHT22;4446;50.876;4.736;2022-08-30T05:55:01;15.50;99.90
8820;DHT22;4446;50.876;4.736;2022-08-30T05:57:31;15.70;99.90
8820;DHT22;4446;50.876;4.736;2022-08-30T06:00:00;15.80;99.90
8820;DHT22;4446;50.876;4.736;2022-08-30T06:02:27;16.00;99.90
8820;DHT22;4446;50.876;4.736;2022-08-30T06:04:54;16.10;99.90
8820;DHT22;4446;50.876;4.736;2022-08-30T06:07:21;16.20;99.90
8820;DHT22;4446;50.876;4.736;2022-08-30T06:09:48;16.30;99.90
8820;DHT22;4446;50.876;4.736;2022-08-30T06:12:15;16.40;99.90
8820;DHT22;4446;50.876;4.736;2022-08-30T06:14:42;16.60;99.90
8820;DHT22;4446;50.876;4.736;2022-08-30T06:17:11;16.60;99.90
8820;DHT22;4446;50.876;4.736;2022-08-30T06:19:38;16.70;99.90
8820;DHT22;4446;50.876;4.736;2022-08-30T06:22:05;16.80;99.90
8820;DHT22;4446;50.876;4.736;2022-08-30T06:24:32;16.90;99.90
8820;DHT22;4446;50.876;4.736;2022-08-30T06:27:02;17.10;99.90
8820;DHT22;4446;50.876;4.736;2022-08-30T06:29:29;17.10;99.90
8820;DHT22;4446;50.876;4.736;2022-08-30T06:31:56;17.10;99.90
8820;DHT22;4446;50.876;4.736;2022-08-30T06:34:25;17.30;99.90
8820;DHT22;4446;50.876;4.736;2022-08-30T06:36:52;17.40;99.90
8820;DHT22;4446;50.876;4.736;2022-08-30T06:39:19;17.50;99.90
8820;DHT22;4446;50.876;4.736;2022-08-30T06:41:47;17.60;99.90
8820;DHT22;4446;50.876;4.736;2022-08-30T06:44:13;17.80;99.90
8820;DHT22;4446;50.876;4.736;2022-08-30T06:46:41;17.80;99.90
8820;DHT22;4446;50.876;4.736;2022-08-30T06:49:08;18.00;99.90
8820;DHT22;4446;50.876;4.736;2022-08-30T06:51:38;17.90;99.90
8820;DHT22;4446;50.876;4.736;2022-08-30T06:54:06;18.00;99.90
8820;DHT22;4446;50.876;4.736;2022-08-30T06:56:33;18.20;99.90
8820;DHT22;4446;50.876;4.736;2022-08-30T06:59:00;18.20;99.90
8820;DHT22;4446;50.876;4.736;2022-08-30T07:01:28;18.40;99.90
8820;DHT22;4446;50.876;4.736;2022-08-30T07:03:56;18.50;99.90
8820;DHT22;4446;50.876;4.736;2022-08-30T07:06:24;18.70;99.90
8820;DHT22;4446;50.876;4.736;2022-08-30T07:08:52;18.80;99.90
8820;DHT22;4446;50.876;4.736;2022-08-30T07:11:28;18.80;99.90
8820;DHT22;4446;50.876;4.736;2022-08-30T07:13:56;18.90;99.90
8820;DHT22;4446;50.876;4.736;2022-08-30T07:16:23;19.10;99.90
8820;DHT22;4446;50.876;4.736;2022-08-30T07:18:50;19.20;99.90
8820;DHT22;4446;50.876;4.736;2022-08-30T07:21:22;19.20;99.90
8820;DHT22;4446;50.876;4.736;2022-08-30T07:23:49;19.40;99.90
8820;DHT22;4446;50.876;4.736;2022-08-30T07:26:20;19.50;99.90
8820;DHT22;4446;50.876;4.736;2022-08-30T07:28:47;19.50;99.90
8820;DHT22;4446;50.876;4.736;2022-08-30T07:31:17;19.60;99.90
8820;DHT22;4446;50.876;4.736;2022-08-30T07:33:44;19.70;99.90
8820;DHT22;4446;50.876;4.736;2022-08-30T07:36:12;19.70;99.90
8820;DHT22;4446;50.876;4.736;2022-08-30T07:38:40;19.80;99.90
8820;DHT22;4446;50.876;4.736;2022-08-30T07:41:07;20.00;99.90
8820;DHT22;4446;50.876;4.736;2022-08-30T07:43:36;20.10;99.90
8820;DHT22;4446;50.876;4.736;2022-08-30T07:46:05;20.20;99.90
8820;DHT22;4446;50.876;4.736;2022-08-30T07:48:32;20.20;99.90
8820;DHT22;4446;50.876;4.736;2022-08-30T07:51:00;20.30;99.90
8820;DHT22;4446;50.876;4.736;2022-08-30T07:53:29;20.50;99.90
8820;DHT22;4446;50.876;4.736;2022-08-30T07:55:56;20.50;99.90
8820;DHT22;4446;50.876;4.736;2022-08-30T07:58:23;20.60;99.90
8820;DHT22;4446;50.876;4.736;2022-08-30T08:00:52;20.50;99.90
8820;DHT22;4446;50.876;4.736;2022-08-30T08:03:19;20.70;99.90
8820;DHT22;4446;50.876;4.736;2022-08-30T08:05:46;20.70;99.90
8820;DHT22;4446;50.876;4.736;2022-08-30T08:08:13;20.80;99.90
8820;DHT22;4446;50.876;4.736;2022-08-30T08:10:40;20.90;99.90
8820;DHT22;4446;50.876;4.736;2022-08-30T08:13:07;21.00;99.90
8820;DHT22;4446;50.876;4.736;2022-08-30T08:15:35;21.20;99.90
8820;DHT22;4446;50.876;4.736;2022-08-30T08:18:04;21.30;99.90
8820;DHT22;4446;50.876;4.736;2022-08-30T08:20:31;21.40;99.90
8820;DHT22;4446;50.876;4.736;2022-08-30T08:22:59;21.50;99.90
8820;DHT22;4446;50.876;4.736;2022-08-30T08:25:26;21.50;99.90
8820;DHT22;4446;50.876;4.736;2022-08-30T08:27:53;21.50;99.90
8820;DHT22;4446;50.876;4.736;2022-08-30T08:30:21;21.50;99.90
8820;DHT22;4446;50.876;4.736;2022-08-30T08:32:50;21.60;99.90
8820;DHT22;4446;50.876;4.736;2022-08-30T08:35:18;21.60;99.90
8820;DHT22;4446;50.876;4.736;2022-08-30T08:37:46;21.60;99.90
8820;DHT22;4446;50.876;4.736;2022-08-30T08:40:15;21.70;99.90
8820;DHT22;4446;50.876;4.736;2022-08-30T08:43:02;21.70;99.90
8820;DHT22;4446;50.876;4.736;2022-08-30T08:45:46;21.90;99.90
8820;DHT22;4446;50.876;4.736;2022-08-30T08:48:30;22.00;99.90
8820;DHT22;4446;50.876;4.736;2022-08-30T08:51:01;22.10;99.90
8820;DHT22;4446;50.876;4.736;2022-08-30T08:53:49;22.20;99.90
8820;DHT22;4446;50.876;4.736;2022-08-30T08:56:18;22.30;99.90
8820;DHT22;4446;50.876;4.736;2022-08-30T08:58:48;22.30;99.90
8820;DHT22;4446;50.876;4.736;2022-08-30T09:01:18;22.40;99.90
8820;DHT22;4446;50.876;4.736;2022-08-30T09:03:46;22.20;99.90
8820;DHT22;4446;50.876;4.736;2022-08-30T09:09:15;22.30;99.90
8820;DHT22;4446;50.876;4.736;2022-08-30T09:11:45;22.40;99.90
8820;DHT22;4446;50.876;4.736;2022-08-30T09:14:18;22.40;99.90
8820;DHT22;4446;50.876;4.736;2022-08-30T09:16:56;22.50;99.90
8820;DHT22;4446;50.876;4.736;2022-08-30T09:19:39;22.60;99.90
8820;DHT22;4446;50.876;4.736;2022-08-30T09:22:21;22.70;99.90
8820;DHT22;4446;50.876;4.736;2022-08-30T09:24:58;22.70;99.90
8820;DHT22;4446;50.876;4.736;2022-08-30T09:27:27;22.90;99.90
8820;DHT22;4446;50.876;4.736;2022-08-30T09:29:59;22.80;99.90
8820;DHT22;4446;50.876;4.736;2022-08-30T09:32:33;22.90;99.90
8820;DHT22;4446;50.876;4.736;2022-08-30T09:35:01;22.90;99.90
8820;DHT22;4446;50.876;4.736;2022-08-30T09:37:37;23.00;99.90
8820;DHT22;4446;50.876;4.736;2022-08-30T09:40:13;23.20;99.90
8820;DHT22;4446;50.876;4.736;2022-08-30T09:42:41;23.40;99.90
8820;DHT22;4446;50.876;4.736;2022-08-30T09:45:29;23.50;99.90
8820;DHT22;4446;50.876;4.736;2022-08-30T09:47:56;23.60;99.90
8820;DHT22;4446;50.876;4.736;2022-08-30T09:50:25;23.80;99.90
8820;DHT22;4446;50.876;4.736;2022-08-30T09:52:59;23.90;99.90
8820;DHT22;4446;50.876;4.736;2022-08-30T09:55:50;24.10;99.90
8820;DHT22;4446;50.876;4.736;2022-08-30T09:58:29;24.20;99.90
8820;DHT22;4446;50.876;4.736;2022-08-30T10:01:05;24.20;99.90
8820;DHT22;4446;50.876;4.736;2022-08-30T10:03:36;24.30;99.90
8820;DHT22;4446;50.876;4.736;2022-08-30T10:06:17;24.40;99.90
8820;DHT22;4446;50.876;4.736;2022-08-30T10:08:52;24.40;99.90
8820;DHT22;4446;50.876;4.736;2022-08-30T10:11:27;24.40;99.90
8820;DHT22;4446;50.876;4.736;2022-08-30T10:17:17;24.50;99.90
8820;DHT22;4446;50.876;4.736;2022-08-30T10:19:56;24.60;99.90
8820;DHT22;4446;50.876;4.736;2022-08-30T10:22:29;24.70;99.90
8820;DHT22;4446;50.876;4.736;2022-08-30T10:25:04;24.80;99.90
8820;DHT22;4446;50.876;4.736;2022-08-30T10:27:38;25.00;99.90
8820;DHT22;4446;50.876;4.736;2022-08-30T10:30:10;25.30;99.90
8820;DHT22;4446;50.876;4.736;2022-08-30T10:32:43;25.40;99.90
8820;DHT22;4446;50.876;4.736;2022-08-30T10:35:14;25.30;99.90
8820;DHT22;4446;50.876;4.736;2022-08-30T10:37:45;25.40;99.90
8820;DHT22;4446;50.876;4.736;2022-08-30T10:40:17;25.60;99.90
8820;DHT22;4446;50.876;4.736;2022-08-30T10:43:09;25.80;99.90
8820;DHT22;4446;50.876;4.736;2022-08-30T10:45:42;25.80;99.90
8820;DHT22;4446;50.876;4.736;2022-08-30T10:48:15;25.80;99.90
8820;DHT22;4446;50.876;4.736;2022-08-30T10:50:48;25.80;99.90
8820;DHT22;4446;50.876;4.736;2022-08-30T10:53:19;26.00;99.90
8820;DHT22;4446;50.876;4.736;2022-08-30T10:55:50;26.10;99.90
8820;DHT22;4446;50.876;4.736;2022-08-30T10:58:20;26.10;99.90
8820;DHT22;4446;50.876;4.736;2022-08-30T11:00:58;26.10;99.90
8820;DHT22;4446;50.876;4.736;2022-08-30T11:06:45;26.60;99.90
8820;DHT22;4446;50.876;4.736;2022-08-30T11:09:30;26.60;99.90
8820;DHT22;4446;50.876;4.736;2022-08-30T11:12:16;26.50;99.90
8820;DHT22;4446;50.876;4.736;2022-08-30T11:14:48;26.60;99.90
8820;DHT22;4446;50.876;4.736;2022-08-30T11:17:25;26.80;99.90
8820;DHT22;4446;50.876;4.736;2022-08-30T11:19:55;27.00;99.90
8820;DHT22;4446;50.876;4.736;2022-08-30T11:22:27;27.10;99.90
8820;DHT22;4446;50.876;4.736;2022-08-30T11:25:07;27.10;99.90
8820;DHT22;4446;50.876;4.736;2022-08-30T11:27:42;27.30;99.90
8820;DHT22;4446;50.876;4.736;2022-08-30T11:33:37;27.40;99.90
8820;DHT22;4446;50.876;4.736;2022-08-30T11:36:06;27.70;99.90
8820;DHT22;4446;50.876;4.736;2022-08-30T11:38:56;27.70;99.90
8820;DHT22;4446;50.876;4.736;2022-08-30T11:41:32;27.70;99.90
8820;DHT22;4446;50.876;4.736;2022-08-30T11:44:29;27.40;99.90
8820;DHT22;4446;50.876;4.736;2022-08-30T11:46:57;27.70;99.90
8820;DHT22;4446;50.876;4.736;2022-08-30T11:49:50;27.80;99.90
8820;DHT22;4446;50.876;4.736;2022-08-30T11:52:33;27.80;99.90
8820;DHT22;4446;50.876;4.736;2022-08-30T11:57:57;27.90;99.90
8820;DHT22;4446;50.876;4.736;2022-08-30T12:00:29;28.00;99.90
8820;DHT22;4446;50.876;4.736;2022-08-30T12:02:59;27.90;99.90
8820;DHT22;4446;50.876;4.736;2022-08-30T12:05:52;27.90;99.90
8820;DHT22;4446;50.876;4.736;2022-08-30T12:08:44;27.90;99.90
8820;DHT22;4446;50.876;4.736;2022-08-30T12:14:44;28.50;99.90
8820;DHT22;4446;50.876;4.736;2022-08-30T12:17:47;28.40;99.90
8820;DHT22;4446;50.876;4.736;2022-08-30T12:20:39;28.10;99.90
8820;DHT22;4446;50.876;4.736;2022-08-30T12:23:18;28.10;99.90
8820;DHT22;4446;50.876;4.736;2022-08-30T12:25:45;28.20;99.90
8820;DHT22;4446;50.876;4.736;2022-08-30T12:28:16;28.30;99.90
8820;DHT22;4446;50.876;4.736;2022-08-30T12:30:46;28.30;99.90
8820;DHT22;4446;50.876;4.736;2022-08-30T12:33:24;28.30;99.90
8820;DHT22;4446;50.876;4.736;2022-08-30T12:35:52;28.30;99.90
8820;DHT22;4446;50.876;4.736;2022-08-30T12:38:22;28.40;99.90
8820;DHT22;4446;50.876;4.736;2022-08-30T12:40:51;28.40;99.90
8820;DHT22;4446;50.876;4.736;2022-08-30T12:43:27;28.40;99.90
8820;DHT22;4446;50.876;4.736;2022-08-30T12:46:00;28.40;99.90
8820;DHT22;4446;50.876;4.736;2022-08-30T12:48:33;28.20;99.90
8820;DHT22;4446;50.876;4.736;2022-08-30T12:51:01;28.00;99.90
8820;DHT22;4446;50.876;4.736;2022-08-30T12:53:31;27.80;99.90
8820;DHT22;4446;50.876;4.736;2022-08-30T12:56:00;27.90;99.90
8820;DHT22;4446;50.876;4.736;2022-08-30T12:58:49;28.00;99.90
8820;DHT22;4446;50.876;4.736;2022-08-30T13:01:23;28.20;99.90
8820;DHT22;4446;50.876;4.736;2022-08-30T13:03:57;28.10;99.90
8820;DHT22;4446;50.876;4.736;2022-08-30T13:06:37;28.10;99.90
8820;DHT22;4446;50.876;4.736;2022-08-30T13:09:06;27.90;99.90
8820;DHT22;4446;50.876;4.736;2022-08-30T13:11:33;27.80;99.90
8820;DHT22;4446;50.876;4.736;2022-08-30T13:14:20;27.50;99.90
8820;DHT22;4446;50.876;4.736;2022-08-30T13:16:47;27.30;99.90
8820;DHT22;4446;50.876;4.736;2022-08-30T13:19:32;27.30;99.90
8820;DHT22;4446;50.876;4.736;2022-08-30T13:22:00;27.40;99.90
8820;DHT22;4446;50.876;4.736;2022-08-30T13:24:29;27.80;99.90
8820;DHT22;4446;50.876;4.736;2022-08-30T13:27:03;28.20;99.90
8820;DHT22;4446;50.876;4.736;2022-08-30T13:29:40;28.50;99.90
8820;DHT22;4446;50.876;4.736;2022-08-30T13:32:12;28.70;99.90
8820;DHT22;4446;50.876;4.736;2022-08-30T13:34:40;28.80;99.90
8820;DHT22;4446;50.876;4.736;2022-08-30T13:37:10;28.80;99.90
8820;DHT22;4446;50.876;4.736;2022-08-30T13:39:41;28.80;99.90
8820;DHT22;4446;50.876;4.736;2022-08-30T13:42:10;28.80;99.90
8820;DHT22;4446;50.876;4.736;2022-08-30T13:44:38;28.90;99.90
8820;DHT22;4446;50.876;4.736;2022-08-30T13:47:05;28.80;99.90
8820;DHT22;4446;50.876;4.736;2022-08-30T13:49:34;28.70;99.90
8820;DHT22;4446;50.876;4.736;2022-08-30T13:52:05;28.60;99.90
8820;DHT22;4446;50.876;4.736;2022-08-30T13:54:33;28.40;99.90
8820;DHT22;4446;50.876;4.736;2022-08-30T13:57:01;28.40;99.90
8820;DHT22;4446;50.876;4.736;2022-08-30T13:59:28;28.50;99.90
8820;DHT22;4446;50.876;4.736;2022-08-30T14:01:58;28.70;99.90
8820;DHT22;4446;50.876;4.736;2022-08-30T14:04:25;29.10;99.90
8820;DHT22;4446;50.876;4.736;2022-08-30T14:06:52;29.30;99.90
8820;DHT22;4446;50.876;4.736;2022-08-30T14:09:19;29.50;99.60
8820;DHT22;4446;50.876;4.736;2022-08-30T14:11:50;29.50;99.30
8820;DHT22;4446;50.876;4.736;2022-08-30T14:14:20;29.20;99.60
8820;DHT22;4446;50.876;4.736;2022-08-30T14:16:47;29.00;99.40
8820;DHT22;4446;50.876;4.736;2022-08-30T14:19:15;28.40;99.90
8820;DHT22;4446;50.876;4.736;2022-08-30T14:21:44;27.90;99.90
8820;DHT22;4446;50.876;4.736;2022-08-30T14:24:11;27.40;99.90
8820;DHT22;4446;50.876;4.736;2022-08-30T14:26:41;27.20;99.90
8820;DHT22;4446;50.876;4.736;2022-08-30T14:29:12;27.40;99.90
8820;DHT22;4446;50.876;4.736;2022-08-30T14:31:41;28.20;99.90
8820;DHT22;4446;50.876;4.736;2022-08-30T14:34:09;29.10;99.90
8820;DHT22;4446;50.876;4.736;2022-08-30T14:36:38;30.00;99.60
8820;DHT22;4446;50.876;4.736;2022-08-30T14:39:07;30.70;97.90
8820;DHT22;4446;50.876;4.736;2022-08-30T14:41:39;30.90;97.20
8820;DHT22;4446;50.876;4.736;2022-08-30T14:44:06;31.30;96.50
8820;DHT22;4446;50.876;4.736;2022-08-30T14:46:33;31.60;96.40
8820;DHT22;4446;50.876;4.736;2022-08-30T14:49:02;31.90;95.90
8820;DHT22;4446;50.876;4.736;2022-08-30T14:51:28;32.30;95.20
8820;DHT22;4446;50.876;4.736;2022-08-30T14:53:56;32.20;94.50
8820;DHT22;4446;50.876;4.736;2022-08-30T14:56:23;32.10;94.50
8820;DHT22;4446;50.876;4.736;2022-08-30T14:58:52;31.90;94.40
8820;DHT22;4446;50.876;4.736;2022-08-30T15:01:25;32.10;94.00
8820;DHT22;4446;50.876;4.736;2022-08-30T15:03:53;31.90;94.00
8820;DHT22;4446;50.876;4.736;2022-08-30T15:06:24;31.40;94.40
8820;DHT22;4446;50.876;4.736;2022-08-30T15:08:53;31.60;94.50
8820;DHT22;4446;50.876;4.736;2022-08-30T15:11:22;31.80;94.30
8820;DHT22;4446;50.876;4.736;2022-08-30T15:13:50;32.10;93.70
8820;DHT22;4446;50.876;4.736;2022-08-30T15:16:20;32.50;93.40
8820;DHT22;4446;50.876;4.736;2022-08-30T15:18:48;32.60;92.90
8820;DHT22;4446;50.876;4.736;2022-08-30T15:21:23;32.30;92.60
8820;DHT22;4446;50.876;4.736;2022-08-30T15:23:50;32.30;92.70
8820;DHT22;4446;50.876;4.736;2022-08-30T15:26:18;31.60;93.20
8820;DHT22;4446;50.876;4.736;2022-08-30T15:28:46;31.00;93.70
8820;DHT22;4446;50.876;4.736;2022-08-30T15:31:13;30.80;94.20
8820;DHT22;4446;50.876;4.736;2022-08-30T15:33:41;30.60;94.50
8820;DHT22;4446;50.876;4.736;2022-08-30T15:36:08;30.60;94.60
8820;DHT22;4446;50.876;4.736;2022-08-30T15:38:37;30.60;94.90
8820;DHT22;4446;50.876;4.736;2022-08-30T15:41:06;30.60;94.50
8820;DHT22;4446;50.876;4.736;2022-08-30T15:43:34;30.60;94.80
8820;DHT22;4446;50.876;4.736;2022-08-30T15:46:15;30.50;94.70
8820;DHT22;4446;50.876;4.736;2022-08-30T15:48:42;30.10;94.90
8820;DHT22;4446;50.876;4.736;2022-08-30T15:51:10;29.50;95.40
8820;DHT22;4446;50.876;4.736;2022-08-30T15:53:38;29.30;95.60
8820;DHT22;4446;50.876;4.736;2022-08-30T15:56:05;29.40;96.20
8820;DHT22;4446;50.876;4.736;2022-08-30T15:58:32;29.70;96.00
8820;DHT22;4446;50.876;4.736;2022-08-30T16:01:00;29.90;95.40
8820;DHT22;4446;50.876;4.736;2022-08-30T16:03:29;29.70;95.10
8820;DHT22;4446;50.876;4.736;2022-08-30T16:05:56;29.60;95.30
8820;DHT22;4446;50.876;4.736;2022-08-30T16:08:23;29.20;95.60
8820;DHT22;4446;50.876;4.736;2022-08-30T16:10:52;29.10;95.80
8820;DHT22;4446;50.876;4.736;2022-08-30T16:13:19;29.40;95.90
8820;DHT22;4446;50.876;4.736;2022-08-30T16:15:46;29.90;95.40
8820;DHT22;4446;50.876;4.736;2022-08-30T16:18:15;30.40;94.50
8820;DHT22;4446;50.876;4.736;2022-08-30T16:20:43;30.50;94.70
8820;DHT22;4446;50.876;4.736;2022-08-30T16:23:10;30.90;94.20
8820;DHT22;4446;50.876;4.736;2022-08-30T16:25:37;31.00;94.00
8820;DHT22;4446;50.876;4.736;2022-08-30T16:28:06;31.10;94.00
8820;DHT22;4446;50.876;4.736;2022-08-30T16:30:32;31.10;94.30
8820;DHT22;4446;50.876;4.736;2022-08-30T16:32:59;30.80;93.90
8820;DHT22;4446;50.876;4.736;2022-08-30T16:35:26;30.70;93.60
8820;DHT22;4446;50.876;4.736;2022-08-30T16:37:53;30.40;94.20
8820;DHT22;4446;50.876;4.736;2022-08-30T16:40:20;30.40;94.40